createdAt,value
2023-04-12T00:00:03.181Z,22.75
2023-04-12T00:01:02.698Z,22.76
2023-04-12T00:02:02.680Z,22.75
2023-04-12T00:03:02.730Z,22.73
2023-04-12T00:04:02.989Z,22.72
2023-04-12T00:05:02.686Z,22.73
2023-04-12T00:06:02.579Z,22.72
2023-04-12T00:07:02.571Z,22.75
2023-04-12T00:08:02.552Z,22.76
2023-04-12T00:09:02.522Z,22.73
2023-04-12T00:10:02.528Z,22.73
2023-04-12T00:11:02.496Z,22.73
2023-04-12T00:12:02.499Z,22.72
2023-04-12T00:13:02.475Z,22.75
2023-04-12T00:14:02.448Z,22.73
2023-04-12T00:15:02.416Z,22.73
2023-04-12T00:16:02.475Z,22.71
2023-04-12T00:17:02.410Z,22.73
2023-04-12T00:18:02.450Z,22.73
2023-04-12T00:19:02.336Z,22.72
2023-04-12T00:20:02.312Z,22.72
2023-04-12T00:21:02.297Z,22.71
2023-04-12T00:22:02.355Z,22.71
2023-04-12T00:23:02.255Z,22.73
2023-04-12T00:24:02.221Z,22.73
2023-04-12T00:25:02.200Z,22.73
2023-04-12T00:26:02.188Z,22.73
2023-04-12T00:27:02.294Z,22.72
2023-04-12T00:28:02.140Z,22.72
2023-04-12T00:29:02.131Z,22.71
2023-04-12T00:30:02.104Z,22.72
2023-04-12T00:31:02.135Z,22.71
2023-04-12T00:32:02.068Z,22.71
2023-04-12T00:33:02.168Z,22.71
2023-04-12T00:34:02.048Z,22.72
2023-04-12T00:35:02.173Z,22.71
2023-04-12T00:36:02.060Z,22.73
2023-04-12T00:37:01.976Z,22.71
2023-04-12T00:38:01.970Z,22.71
2023-04-12T00:39:01.943Z,22.71
2023-04-12T00:40:01.940Z,22.69
2023-04-12T00:41:01.917Z,22.71
2023-04-12T00:42:01.890Z,22.71
2023-04-12T00:43:01.866Z,22.69
2023-04-12T00:44:01.867Z,22.71
2023-04-12T00:45:01.835Z,22.71
2023-04-12T00:46:01.820Z,22.71
2023-04-12T00:47:01.908Z,22.71
2023-04-12T00:48:01.832Z,22.69
2023-04-12T00:49:01.773Z,22.69
2023-04-12T00:50:01.768Z,22.71
2023-04-12T00:51:01.756Z,22.69
2023-04-12T00:52:01.714Z,22.69
2023-04-12T00:53:01.710Z,22.71
2023-04-12T00:54:01.718Z,22.68
2023-04-12T00:55:01.682Z,22.69
2023-04-12T00:56:01.711Z,22.69
2023-04-12T00:57:01.640Z,22.71
2023-04-12T00:58:01.636Z,22.69
2023-04-12T00:59:01.628Z,22.69
2023-04-12T01:00:01.618Z,22.68
2023-04-12T01:01:01.664Z,22.69
2023-04-12T01:02:01.739Z,22.69
2023-04-12T01:03:01.639Z,22.68
2023-04-12T01:04:01.709Z,22.68
2023-04-12T01:05:01.536Z,22.68
2023-04-12T01:06:01.539Z,22.69
2023-04-12T01:07:01.505Z,22.69
2023-04-12T01:08:01.469Z,22.66
2023-04-12T01:09:01.442Z,22.68
2023-04-12T01:10:01.429Z,22.71
2023-04-12T01:11:01.429Z,22.69
2023-04-12T01:12:01.406Z,22.69
2023-04-12T01:13:01.395Z,22.69
2023-04-12T01:14:01.426Z,22.69
2023-04-12T01:15:01.376Z,22.68
2023-04-12T01:16:01.398Z,22.68
2023-04-12T01:17:01.344Z,22.69
2023-04-12T01:18:01.341Z,22.69
2023-04-12T01:19:01.311Z,22.69
2023-04-12T01:20:01.318Z,22.69
2023-04-12T01:21:01.329Z,22.71
2023-04-12T01:22:01.265Z,22.69
2023-04-12T01:23:01.247Z,22.69
2023-04-12T01:24:01.234Z,22.71
2023-04-12T01:25:01.207Z,22.69
2023-04-12T01:26:01.215Z,22.72
2023-04-12T01:27:01.155Z,22.71
2023-04-12T01:28:01.136Z,22.71
2023-04-12T01:29:01.113Z,22.72
2023-04-12T01:30:01.100Z,22.72
2023-04-12T01:31:01.096Z,22.73
2023-04-12T01:32:01.113Z,22.73
2023-04-12T01:33:01.130Z,22.73
2023-04-12T01:34:01.013Z,22.73
2023-04-12T01:35:01.006Z,22.73
2023-04-12T01:36:01.084Z,22.76
2023-04-12T01:37:00.964Z,22.76
2023-04-12T01:38:00.939Z,22.75
2023-04-12T01:39:00.930Z,22.78
2023-04-12T01:40:00.906Z,22.78
2023-04-12T01:41:00.882Z,22.79
2023-04-12T01:42:00.927Z,22.78
2023-04-12T01:43:00.840Z,22.76
2023-04-12T01:44:00.829Z,22.79
2023-04-12T01:45:01.060Z,22.76
2023-04-12T01:46:00.808Z,22.78
2023-04-12T01:47:00.786Z,22.76
2023-04-12T01:48:00.767Z,22.80
2023-04-12T01:49:00.727Z,22.79
2023-04-12T01:50:00.731Z,22.78
2023-04-12T01:51:00.695Z,22.80
2023-04-12T01:52:00.651Z,22.82
2023-04-12T01:53:00.628Z,22.82
2023-04-12T01:54:00.612Z,22.80
2023-04-12T01:55:00.575Z,22.79
2023-04-12T01:56:00.566Z,22.82
2023-04-12T01:57:00.543Z,22.80
2023-04-12T01:58:00.504Z,22.85
2023-04-12T01:59:00.483Z,22.80
2023-04-12T02:00:00.452Z,22.85
2023-04-12T02:01:00.485Z,22.83
2023-04-12T02:02:00.466Z,22.82
2023-04-12T02:03:00.604Z,22.82
2023-04-12T02:04:00.825Z,22.82
2023-04-12T02:05:00.329Z,22.83
2023-04-12T02:06:00.311Z,22.83
2023-04-12T02:07:00.304Z,22.83
2023-04-12T02:08:00.252Z,22.80
2023-04-12T02:09:00.220Z,22.86
2023-04-12T02:10:00.210Z,22.83
2023-04-12T02:11:00.176Z,22.83
2023-04-12T02:12:00.167Z,22.83
2023-04-12T02:13:00.132Z,22.83
2023-04-12T02:14:00.123Z,22.83
2023-04-12T02:15:00.080Z,22.83
2023-04-12T02:16:00.059Z,22.83
2023-04-12T02:17:00.055Z,22.86
2023-04-12T02:18:00.007Z,22.83
2023-04-12T02:18:59.944Z,22.85
2023-04-12T02:19:59.940Z,22.85
2023-04-12T02:20:59.896Z,22.86
2023-04-12T02:21:59.858Z,22.86
2023-04-12T02:22:59.821Z,22.86
2023-04-12T02:23:59.783Z,22.85
2023-04-12T02:24:59.756Z,22.85
2023-04-12T02:25:59.705Z,22.86
2023-04-12T02:26:59.678Z,22.88
2023-04-12T02:27:59.636Z,22.88
2023-04-12T02:28:59.604Z,22.86
2023-04-12T02:29:59.568Z,22.88
2023-04-12T02:30:59.559Z,22.91
2023-04-12T02:31:59.499Z,22.89
2023-04-12T02:32:59.495Z,22.85
2023-04-12T02:33:59.737Z,22.86
2023-04-12T02:34:59.390Z,22.89
2023-04-12T02:35:59.387Z,22.89
2023-04-12T02:36:59.311Z,22.86
2023-04-12T02:37:59.268Z,22.88
2023-04-12T02:38:59.260Z,22.88
2023-04-12T02:39:59.203Z,22.88
2023-04-12T02:40:59.167Z,22.89
2023-04-12T02:41:59.130Z,22.88
2023-04-12T02:42:59.085Z,22.89
2023-04-12T02:43:59.141Z,22.88
2023-04-12T02:44:59.017Z,22.89
2023-04-12T02:45:58.994Z,22.88
2023-04-12T02:46:58.933Z,22.92
2023-04-12T02:47:58.955Z,22.89
2023-04-12T02:48:58.848Z,22.89
2023-04-12T02:49:58.810Z,22.89
2023-04-12T02:50:58.770Z,22.89
2023-04-12T02:51:58.740Z,22.89
2023-04-12T02:52:58.701Z,22.89
2023-04-12T02:53:58.769Z,22.91
2023-04-12T02:54:58.609Z,22.91
2023-04-12T02:55:58.571Z,22.91
2023-04-12T02:56:58.524Z,22.92
2023-04-12T02:57:58.484Z,22.91
2023-04-12T02:58:58.465Z,22.89
2023-04-12T02:59:58.414Z,22.86
2023-04-12T03:00:58.395Z,22.92
2023-04-12T03:01:58.447Z,22.92
2023-04-12T03:02:58.430Z,22.91
2023-04-12T03:03:58.632Z,22.91
2023-04-12T03:04:58.294Z,22.91
2023-04-12T03:05:58.268Z,22.91
2023-04-12T03:06:58.246Z,22.92
2023-04-12T03:07:58.216Z,22.91
2023-04-12T03:08:58.177Z,22.92
2023-04-12T03:09:58.140Z,22.93
2023-04-12T03:10:58.125Z,22.92
2023-04-12T03:11:58.097Z,22.93
2023-04-12T03:12:58.049Z,22.95
2023-04-12T03:13:58.263Z,22.92
2023-04-12T03:14:58.003Z,22.91
2023-04-12T03:15:58.015Z,22.91
2023-04-12T03:16:57.947Z,22.92
2023-04-12T03:17:57.945Z,22.91
2023-04-12T03:18:57.892Z,22.93
2023-04-12T03:19:57.853Z,22.92
2023-04-12T03:20:57.827Z,22.92
2023-04-12T03:21:57.803Z,22.91
2023-04-12T03:22:57.768Z,22.91
2023-04-12T03:23:58.022Z,22.93
2023-04-12T03:24:57.702Z,22.92
2023-04-12T03:25:57.666Z,22.93
2023-04-12T03:26:57.634Z,22.93
2023-04-12T03:27:57.599Z,22.92
2023-04-12T03:28:57.630Z,22.93
2023-04-12T03:29:57.540Z,22.93
2023-04-12T03:30:57.610Z,22.92
2023-04-12T03:31:57.482Z,22.92
2023-04-12T03:32:57.494Z,22.95
2023-04-12T03:33:57.714Z,22.92
2023-04-12T03:34:57.387Z,22.93
2023-04-12T03:35:57.352Z,22.93
2023-04-12T03:36:57.312Z,22.93
2023-04-12T03:37:57.260Z,22.95
2023-04-12T03:38:57.756Z,22.92
2023-04-12T03:39:57.194Z,22.95
2023-04-12T03:40:57.148Z,22.92
2023-04-12T03:41:57.148Z,22.92
2023-04-12T03:42:57.506Z,22.93
2023-04-12T03:43:57.396Z,22.93
2023-04-12T03:44:57.012Z,22.91
2023-04-12T03:45:56.988Z,22.92
2023-04-12T03:46:57.042Z,22.93
2023-04-12T03:47:57.029Z,22.92
2023-04-12T03:48:56.895Z,22.93
2023-04-12T03:50:11.005Z,22.95
2023-04-12T03:50:57.828Z,22.93
2023-04-12T03:51:56.770Z,22.92
2023-04-12T03:52:56.723Z,22.93
2023-04-12T03:53:56.981Z,22.95
2023-04-12T03:54:56.643Z,22.93
2023-04-12T03:55:56.616Z,22.95
2023-04-12T03:56:56.571Z,22.93
2023-04-12T03:57:56.531Z,22.92
2023-04-12T03:58:56.480Z,22.93
2023-04-12T03:59:56.448Z,22.93
2023-04-12T04:00:56.394Z,22.92
2023-04-12T04:01:56.414Z,22.92
2023-04-12T04:02:56.375Z,22.93
2023-04-12T04:03:56.773Z,22.95
2023-04-12T04:04:56.360Z,22.93
2023-04-12T04:05:56.201Z,22.95
2023-04-12T04:06:56.164Z,22.95
2023-04-12T04:07:56.128Z,22.93
2023-04-12T04:08:56.085Z,22.96
2023-04-12T04:09:56.066Z,22.93
2023-04-12T04:10:56.003Z,22.92
2023-04-12T04:11:55.974Z,22.95
2023-04-12T04:12:55.943Z,22.92
2023-04-12T04:13:56.192Z,22.95
2023-04-12T04:14:55.846Z,22.95
2023-04-12T04:15:55.844Z,22.95
2023-04-12T04:16:55.766Z,22.95
2023-04-12T04:17:55.749Z,22.93
2023-04-12T04:18:55.674Z,22.93
2023-04-12T04:19:55.633Z,22.93
2023-04-12T04:20:55.602Z,22.95
2023-04-12T04:21:55.548Z,22.95
2023-04-12T04:22:55.501Z,22.95
2023-04-12T04:23:55.736Z,22.96
2023-04-12T04:24:55.417Z,22.95
2023-04-12T04:25:55.374Z,22.96
2023-04-12T04:26:55.360Z,22.95
2023-04-12T04:27:55.298Z,22.96
2023-04-12T04:28:55.259Z,22.93
2023-04-12T04:29:55.222Z,22.92
2023-04-12T04:30:55.172Z,22.95
2023-04-12T04:31:55.140Z,22.95
2023-04-12T04:32:55.208Z,22.93
2023-04-12T04:33:55.146Z,22.93
2023-04-12T04:34:55.006Z,22.96
2023-04-12T04:35:54.981Z,22.95
2023-04-12T04:36:54.957Z,22.93
2023-04-12T04:37:54.902Z,22.93
2023-04-12T04:38:54.867Z,22.98
2023-04-12T04:39:54.841Z,22.96
2023-04-12T04:40:54.802Z,22.95
2023-04-12T04:41:55.074Z,22.96
2023-04-12T04:42:54.738Z,22.95
2023-04-12T04:43:54.751Z,22.96
2023-04-12T04:44:54.646Z,22.93
2023-04-12T04:45:54.780Z,22.96
2023-04-12T04:46:54.603Z,22.95
2023-04-12T04:47:54.617Z,22.95
2023-04-12T04:48:54.528Z,22.93
2023-04-12T04:49:54.516Z,22.98
2023-04-12T04:50:54.498Z,22.93
2023-04-12T04:51:54.484Z,22.95
2023-04-12T04:52:54.437Z,22.96
2023-04-12T04:53:54.602Z,22.96
2023-04-12T04:54:54.363Z,22.96
2023-04-12T04:55:54.335Z,22.95
2023-04-12T04:56:54.321Z,22.95
2023-04-12T04:57:54.293Z,22.95
2023-04-12T04:59:54.234Z,22.96
2023-04-12T05:00:54.213Z,22.96
2023-04-12T05:01:54.163Z,22.95
2023-04-12T05:02:54.223Z,22.95
2023-04-12T05:03:54.296Z,22.95
2023-04-12T05:04:54.074Z,22.95
2023-04-12T05:05:54.039Z,22.96
2023-04-12T05:06:54.008Z,22.96
2023-04-12T05:07:53.978Z,22.96
2023-04-12T05:08:53.933Z,22.95
2023-04-12T05:09:53.889Z,22.96
2023-04-12T05:10:53.860Z,22.98
2023-04-12T05:11:53.831Z,22.98
2023-04-12T05:12:53.795Z,22.96
2023-04-12T05:13:53.778Z,22.98
2023-04-12T05:15:04.817Z,22.98
2023-04-12T05:15:54.728Z,22.98
2023-04-12T05:16:53.730Z,22.98
2023-04-12T05:17:54.376Z,22.96
2023-04-12T05:18:53.642Z,22.99
2023-04-12T05:19:53.565Z,22.96
2023-04-12T05:20:53.544Z,22.96
2023-04-12T05:21:53.796Z,22.96
2023-04-12T05:22:53.475Z,22.95
2023-04-12T05:23:53.438Z,22.98
2023-04-12T05:24:53.402Z,23.01
2023-04-12T05:25:53.493Z,22.99
2023-04-12T05:26:53.412Z,22.99
2023-04-12T05:27:53.471Z,23.03
2023-04-12T05:28:53.468Z,23.09
2023-04-12T05:29:53.490Z,23.16
2023-04-12T05:30:53.553Z,23.22
2023-04-12T05:31:53.567Z,23.27
2023-04-12T05:32:53.563Z,23.33
2023-04-12T05:33:53.579Z,23.40
2023-04-12T05:34:53.535Z,23.47
2023-04-12T05:35:53.538Z,23.51
2023-04-12T05:36:53.437Z,23.57
2023-04-12T05:37:53.390Z,23.61
2023-04-12T05:38:53.341Z,23.67
2023-04-12T05:39:53.297Z,23.71
2023-04-12T05:40:53.268Z,23.78
2023-04-12T05:41:53.230Z,23.84
2023-04-12T05:42:53.188Z,23.87
2023-04-12T05:43:53.133Z,23.89
2023-04-12T05:44:53.093Z,23.92
2023-04-12T05:45:53.211Z,23.99
2023-04-12T05:46:53.309Z,24.04
2023-04-12T05:47:54.843Z,24.05
2023-04-12T05:48:52.921Z,24.11
2023-04-12T05:49:52.881Z,24.12
2023-04-12T05:50:52.847Z,24.16
2023-04-12T05:51:52.797Z,24.18
2023-04-12T05:52:54.396Z,24.22
2023-04-12T05:53:52.719Z,24.23
2023-04-12T05:54:52.661Z,24.28
2023-04-12T05:55:52.697Z,24.29
2023-04-12T05:56:52.688Z,24.30
2023-04-12T05:57:52.715Z,24.35
2023-04-12T05:58:52.722Z,24.38
2023-04-12T05:59:52.752Z,24.38
2023-04-12T06:00:52.796Z,24.42
2023-04-12T06:01:52.799Z,24.43
2023-04-12T06:02:52.870Z,24.43
2023-04-12T06:03:52.944Z,24.46
2023-04-12T06:04:53.027Z,24.48
2023-04-12T06:05:52.860Z,24.49
2023-04-12T06:06:52.868Z,24.53
2023-04-12T06:07:52.869Z,24.55
2023-04-12T06:08:52.889Z,24.56
2023-04-12T06:09:52.850Z,24.57
2023-04-12T06:10:52.790Z,24.57
2023-04-12T06:11:52.769Z,24.62
2023-04-12T06:12:52.703Z,24.63
2023-04-12T06:13:52.688Z,24.62
2023-04-12T06:14:52.604Z,24.64
2023-04-12T06:15:52.603Z,24.64
2023-04-12T06:16:53.243Z,24.66
2023-04-12T06:17:52.503Z,24.66
2023-04-12T06:18:52.439Z,24.69
2023-04-12T06:19:52.401Z,24.69
2023-04-12T06:20:53.240Z,24.71
2023-04-12T06:21:52.362Z,24.71
2023-04-12T06:22:52.242Z,24.71
2023-04-12T06:23:52.204Z,24.73
2023-04-12T06:24:52.830Z,24.71
2023-04-12T06:25:52.129Z,24.76
2023-04-12T06:26:52.078Z,24.77
2023-04-12T06:27:52.030Z,24.80
2023-04-12T06:28:52.014Z,24.83
2023-04-12T06:29:52.816Z,24.84
2023-04-12T06:30:51.850Z,24.84
2023-04-12T06:31:51.816Z,24.88
2023-04-12T06:32:51.785Z,24.93
2023-04-12T06:33:51.727Z,24.93
2023-04-12T06:34:51.707Z,24.93
2023-04-12T06:35:51.701Z,24.94
2023-04-12T06:36:52.245Z,24.97
2023-04-12T06:37:51.664Z,24.94
2023-04-12T06:38:51.631Z,24.98
2023-04-12T06:39:51.594Z,25.00
2023-04-12T06:40:51.574Z,25.03
2023-04-12T06:41:51.551Z,25.04
2023-04-12T06:42:51.528Z,25.07
2023-04-12T06:43:51.832Z,25.10
2023-04-12T06:44:51.486Z,25.10
2023-04-12T06:45:51.456Z,25.11
2023-04-12T06:46:51.475Z,25.14
2023-04-12T06:47:51.604Z,25.15
2023-04-12T06:48:51.450Z,25.19
2023-04-12T06:49:52.341Z,25.19
2023-04-12T06:50:52.254Z,25.21
2023-04-12T06:51:51.195Z,25.25
2023-04-12T06:52:51.140Z,25.24
2023-04-12T06:53:51.086Z,25.25
2023-04-12T06:54:52.826Z,25.25
2023-04-12T06:55:50.992Z,25.24
2023-04-12T06:56:50.927Z,25.24
2023-04-12T06:57:50.883Z,25.25
2023-04-12T06:58:50.825Z,25.28
2023-04-12T06:59:50.767Z,25.29
2023-04-12T07:00:51.280Z,25.31
2023-04-12T07:01:50.744Z,25.31
2023-04-12T07:02:50.746Z,25.32
2023-04-12T07:03:50.689Z,25.34
2023-04-12T07:04:50.505Z,25.28
2023-04-12T07:05:50.432Z,25.29
2023-04-12T07:06:50.386Z,25.29
2023-04-12T07:07:50.346Z,25.28
2023-04-12T07:08:50.822Z,25.28
2023-04-12T07:09:50.242Z,25.29
2023-04-12T07:10:50.176Z,25.28
2023-04-12T07:11:50.119Z,25.31
2023-04-12T07:12:50.069Z,25.29
2023-04-12T07:13:51.966Z,25.32
2023-04-12T07:14:50.031Z,25.32
2023-04-12T07:15:49.912Z,25.32
2023-04-12T07:16:49.938Z,25.28
2023-04-12T07:17:49.870Z,25.25
2023-04-12T07:18:50.423Z,25.22
2023-04-12T07:19:49.713Z,25.17
2023-04-12T07:20:49.668Z,25.13
2023-04-12T07:21:49.606Z,25.07
2023-04-12T07:22:49.583Z,25.00
2023-04-12T07:23:49.512Z,24.94
2023-04-12T07:24:49.458Z,24.93
2023-04-12T07:25:49.417Z,24.88
2023-04-12T07:26:49.367Z,24.81
2023-04-12T07:27:51.597Z,24.78
2023-04-12T07:28:49.387Z,24.74
2023-04-12T07:29:49.389Z,24.67
2023-04-12T07:30:49.397Z,24.66
2023-04-12T07:31:49.659Z,24.63
2023-04-12T07:32:49.519Z,24.57
2023-04-12T07:33:49.556Z,24.55
2023-04-12T07:34:49.455Z,24.50
2023-04-12T07:35:50.356Z,24.48
2023-04-12T07:36:49.450Z,24.43
2023-04-12T07:37:49.445Z,24.42
2023-04-12T07:38:49.432Z,24.39
2023-04-12T07:39:49.453Z,24.36
2023-04-12T07:40:50.338Z,24.35
2023-04-12T07:41:49.366Z,24.32
2023-04-12T07:42:49.366Z,24.30
2023-04-12T07:43:49.321Z,24.30
2023-04-12T07:44:49.274Z,24.30
2023-04-12T07:45:49.312Z,24.28
2023-04-12T07:46:49.257Z,24.26
2023-04-12T07:47:49.344Z,24.23
2023-04-12T07:48:49.199Z,24.23
2023-04-12T07:49:49.215Z,24.22
2023-04-12T07:50:49.209Z,24.22
2023-04-12T07:51:49.227Z,24.19
2023-04-12T07:52:49.319Z,24.18
2023-04-12T07:53:49.163Z,24.16
2023-04-12T07:54:49.164Z,24.18
2023-04-12T07:55:49.117Z,24.15
2023-04-12T07:56:49.074Z,24.13
2023-04-12T07:57:49.039Z,24.13
2023-04-12T07:58:48.984Z,24.13
2023-04-12T07:59:48.949Z,24.11
2023-04-12T08:00:48.941Z,24.11
2023-04-12T08:01:48.945Z,24.09
2023-04-12T08:02:48.940Z,24.09
2023-04-12T08:03:48.993Z,24.09
2023-04-12T08:04:48.786Z,24.07
2023-04-12T08:05:48.803Z,24.09
2023-04-12T08:06:48.706Z,24.07
2023-04-12T08:07:48.665Z,24.05
2023-04-12T08:08:48.786Z,24.08
2023-04-12T08:09:48.591Z,24.05
2023-04-12T08:10:48.545Z,24.05
2023-04-12T08:11:48.500Z,24.04
2023-04-12T08:12:48.475Z,24.02
2023-04-12T08:13:48.582Z,24.04
2023-04-12T08:14:48.398Z,24.07
2023-04-12T08:15:48.454Z,24.02
2023-04-12T08:16:48.307Z,24.04
2023-04-12T08:17:48.330Z,24.04
2023-04-12T08:18:48.268Z,24.02
2023-04-12T08:19:48.210Z,24.02
2023-04-12T08:20:48.174Z,23.99
2023-04-12T08:21:48.141Z,24.01
2023-04-12T08:22:48.105Z,24.01
2023-04-12T08:23:48.071Z,23.99
2023-04-12T08:24:48.039Z,24.02
2023-04-12T08:25:48.007Z,24.01
2023-04-12T08:26:47.976Z,23.98
2023-04-12T08:27:47.964Z,24.01
2023-04-12T08:28:47.926Z,23.98
2023-04-12T08:29:47.886Z,23.98
2023-04-12T08:30:47.816Z,24.01
2023-04-12T08:31:47.815Z,23.99
2023-04-12T08:32:47.765Z,23.99
2023-04-12T08:33:47.725Z,23.99
2023-04-12T08:34:47.768Z,23.99
2023-04-12T08:35:47.686Z,23.99
2023-04-12T08:36:48.614Z,23.98
2023-04-12T08:37:47.560Z,23.95
2023-04-12T08:38:47.521Z,23.97
2023-04-12T08:39:47.473Z,23.95
2023-04-12T08:40:47.421Z,23.98
2023-04-12T08:41:47.367Z,23.95
2023-04-12T08:42:47.327Z,23.95
2023-04-12T08:43:47.290Z,23.97
2023-04-12T08:44:47.243Z,23.97
2023-04-12T08:45:47.189Z,23.95
2023-04-12T08:46:47.220Z,23.95
2023-04-12T08:47:47.111Z,23.97
2023-04-12T08:48:47.101Z,23.98
2023-04-12T08:49:46.995Z,23.95
2023-04-12T08:50:48.029Z,23.97
2023-04-12T08:51:47.062Z,23.95
2023-04-12T08:52:47.049Z,23.97
2023-04-12T08:53:46.990Z,23.95
2023-04-12T08:54:46.960Z,23.98
2023-04-12T08:55:46.916Z,23.98
2023-04-12T08:56:46.972Z,23.97
2023-04-12T08:57:46.882Z,24.01
2023-04-12T08:58:46.880Z,23.98
2023-04-12T08:59:46.783Z,23.99
2023-04-12T09:00:46.746Z,23.98
2023-04-12T09:01:46.738Z,23.97
2023-04-12T09:02:46.845Z,23.97
2023-04-12T09:03:46.906Z,23.98
2023-04-12T09:04:46.704Z,23.95
2023-04-12T09:05:46.506Z,23.97
2023-04-12T09:06:46.459Z,23.98
2023-04-12T09:07:46.420Z,23.95
2023-04-12T09:08:46.455Z,23.97
2023-04-12T09:09:46.313Z,23.97
2023-04-12T09:10:46.266Z,23.95
2023-04-12T09:11:46.210Z,23.97
2023-04-12T09:12:46.246Z,23.95
2023-04-12T09:13:46.108Z,23.94
2023-04-12T09:14:46.080Z,23.97
2023-04-12T09:15:46.027Z,23.97
2023-04-12T09:16:46.001Z,23.95
2023-04-12T09:17:45.967Z,23.94
2023-04-12T09:18:45.860Z,23.94
2023-04-12T09:19:45.824Z,23.97
2023-04-12T09:20:45.768Z,23.94
2023-04-12T09:21:45.785Z,23.95
2023-04-12T09:22:45.676Z,23.97
2023-04-12T09:23:45.618Z,23.94
2023-04-12T09:24:45.571Z,23.94
2023-04-12T09:25:45.518Z,23.92
2023-04-12T09:26:45.486Z,23.92
2023-04-12T09:27:45.456Z,23.94
2023-04-12T09:28:45.418Z,23.92
2023-04-12T09:29:45.355Z,23.94
2023-04-12T09:30:45.292Z,23.94
2023-04-12T09:31:45.347Z,23.92
2023-04-12T09:32:45.250Z,23.92
2023-04-12T09:33:45.157Z,23.92
2023-04-12T09:34:45.128Z,23.92
2023-04-12T09:35:45.209Z,23.91
2023-04-12T09:36:45.059Z,23.92
2023-04-12T09:37:45.036Z,23.94
2023-04-12T09:38:45.034Z,23.91
2023-04-12T09:39:44.971Z,23.92
2023-04-12T09:40:44.936Z,23.91
2023-04-12T09:41:44.904Z,23.91
2023-04-12T09:42:44.893Z,23.91
2023-04-12T09:43:44.864Z,23.91
2023-04-12T09:44:44.990Z,23.91
2023-04-12T09:45:44.889Z,23.89
2023-04-12T09:46:46.413Z,23.92
2023-04-12T09:47:44.836Z,23.89
2023-04-12T09:48:44.827Z,23.89
2023-04-12T09:49:44.652Z,23.89
2023-04-12T09:50:44.595Z,23.89
2023-04-12T09:51:44.560Z,23.88
2023-04-12T09:52:44.529Z,23.89
2023-04-12T09:53:44.455Z,23.89
2023-04-12T09:54:44.401Z,23.89
2023-04-12T09:55:44.351Z,23.89
2023-04-12T09:56:44.331Z,23.88
2023-04-12T09:57:44.362Z,23.91
2023-04-12T09:58:44.201Z,23.91
2023-04-12T09:59:44.176Z,23.91
2023-04-12T10:00:44.170Z,23.88
2023-04-12T10:01:44.186Z,23.91
2023-04-12T10:02:45.551Z,23.91
2023-04-12T10:03:44.067Z,23.92
2023-04-12T10:04:44.017Z,23.92
2023-04-12T10:05:43.876Z,23.91
2023-04-12T10:06:43.846Z,23.92
2023-04-12T10:07:43.780Z,23.92
2023-04-12T10:08:44.519Z,23.95
2023-04-12T10:09:43.683Z,23.95
2023-04-12T10:10:43.661Z,23.98
2023-04-12T10:11:43.574Z,23.98
2023-04-12T10:12:43.556Z,23.98
2023-04-12T10:13:43.502Z,23.99
2023-04-12T10:14:43.469Z,23.97
2023-04-12T10:15:43.459Z,23.98
2023-04-12T10:16:43.581Z,23.97
2023-04-12T10:17:43.356Z,23.99
2023-04-12T10:18:43.276Z,24.01
2023-04-12T10:19:43.229Z,24.01
2023-04-12T10:20:43.207Z,23.99
2023-04-12T10:21:43.183Z,24.01
2023-04-12T10:22:43.119Z,24.01
2023-04-12T10:23:43.051Z,23.98
2023-04-12T10:24:43.029Z,23.99
2023-04-12T10:25:42.988Z,24.01
2023-04-12T10:26:42.947Z,24.01
2023-04-12T10:27:42.888Z,24.01
2023-04-12T10:28:42.824Z,24.02
2023-04-12T10:29:42.752Z,24.02
2023-04-12T10:30:42.706Z,24.02
2023-04-12T10:31:42.683Z,24.02
2023-04-12T10:32:42.632Z,24.01
2023-04-12T10:33:42.589Z,24.05
2023-04-12T10:34:42.530Z,24.04
2023-04-12T10:35:42.522Z,24.04
2023-04-12T10:36:42.442Z,24.04
2023-04-12T10:37:42.386Z,24.04
2023-04-12T10:38:42.350Z,24.05
2023-04-12T10:39:42.334Z,24.04
2023-04-12T10:40:42.272Z,24.04
2023-04-12T10:41:42.249Z,24.05
2023-04-12T10:42:42.138Z,24.02
2023-04-12T10:43:42.085Z,24.04
2023-04-12T10:44:42.032Z,24.05
2023-04-12T10:45:41.969Z,24.05
2023-04-12T10:46:41.962Z,24.04
2023-04-12T10:47:41.916Z,24.05
2023-04-12T10:48:41.859Z,24.08
2023-04-12T10:49:41.742Z,24.07
2023-04-12T10:50:41.706Z,24.08
2023-04-12T10:51:41.665Z,24.08
2023-04-12T10:52:41.595Z,24.08
2023-04-12T10:53:41.539Z,24.07
2023-04-12T10:54:41.532Z,24.05
2023-04-12T10:55:41.443Z,24.05
2023-04-12T10:56:41.402Z,24.05
2023-04-12T10:57:41.362Z,24.09
2023-04-12T10:58:41.283Z,24.08
2023-04-12T10:59:47.568Z,24.09
2023-04-12T11:00:41.291Z,24.07
2023-04-12T11:01:41.230Z,24.08
2023-04-12T11:02:41.210Z,24.11
2023-04-12T11:03:41.119Z,24.11
2023-04-12T11:04:41.106Z,24.13
2023-04-12T11:05:40.965Z,24.15
2023-04-12T11:06:40.897Z,24.15
2023-04-12T11:07:40.827Z,24.16
2023-04-12T11:08:40.850Z,24.13
2023-04-12T11:09:40.751Z,24.20
2023-04-12T11:10:40.676Z,24.19
2023-04-12T11:11:40.641Z,24.22
2023-04-12T11:12:40.561Z,24.20
2023-04-12T11:13:40.506Z,24.20
2023-04-12T11:14:40.450Z,24.20
2023-04-12T11:15:40.405Z,24.22
2023-04-12T11:16:40.358Z,24.22
2023-04-12T11:17:40.377Z,24.22
2023-04-12T11:18:40.270Z,24.20
2023-04-12T11:19:40.246Z,24.20
2023-04-12T11:20:40.161Z,24.19
2023-04-12T11:21:40.151Z,24.20
2023-04-12T11:22:40.074Z,24.19
2023-04-12T11:23:40.043Z,24.19
2023-04-12T11:24:40.023Z,24.16
2023-04-12T11:25:39.929Z,24.15
2023-04-12T11:26:39.878Z,24.16
2023-04-12T11:27:39.815Z,24.16
2023-04-12T11:28:39.779Z,24.15
2023-04-12T11:29:39.705Z,24.16
2023-04-12T11:30:39.648Z,24.19
2023-04-12T11:31:39.685Z,24.16
2023-04-12T11:32:39.627Z,24.16
2023-04-12T11:33:39.502Z,24.15
2023-04-12T11:34:39.450Z,24.15
2023-04-12T11:35:39.401Z,24.15
2023-04-12T11:36:39.362Z,24.15
2023-04-12T11:37:39.327Z,24.12
2023-04-12T11:38:39.267Z,24.13
2023-04-12T11:39:39.224Z,24.15
2023-04-12T11:40:39.184Z,24.13
2023-04-12T11:41:39.133Z,24.13
2023-04-12T11:42:39.080Z,24.12
2023-04-12T11:43:39.096Z,24.13
2023-04-12T11:44:55.224Z,24.13
2023-04-12T11:45:40.209Z,24.12
2023-04-12T11:46:39.859Z,24.15
2023-04-12T11:47:38.854Z,24.13
2023-04-12T11:48:38.968Z,24.13
2023-04-12T11:49:38.720Z,24.13
2023-04-12T11:50:38.674Z,24.12
2023-04-12T11:51:38.617Z,24.13
2023-04-12T11:52:38.564Z,24.12
2023-04-12T11:53:38.506Z,24.13
2023-04-12T11:54:38.475Z,24.18
2023-04-12T11:55:38.391Z,24.16
2023-04-12T11:56:38.338Z,24.18
2023-04-12T11:57:38.290Z,24.16
2023-04-12T11:58:38.228Z,24.15
2023-04-12T11:59:38.206Z,24.15
2023-04-12T12:00:38.125Z,24.15
2023-04-12T12:01:38.116Z,24.16
2023-04-12T12:02:43.739Z,24.15
2023-04-12T12:03:39.094Z,24.15
2023-04-12T12:04:38.092Z,24.18
2023-04-12T12:05:38.020Z,24.20
2023-04-12T12:06:38.392Z,24.20
2023-04-12T12:07:37.770Z,24.18
2023-04-12T12:08:37.712Z,24.18
2023-04-12T12:09:37.699Z,24.20
2023-04-12T12:10:49.095Z,24.18
2023-04-12T12:11:38.570Z,24.19
2023-04-12T12:12:37.486Z,24.18
2023-04-12T12:13:37.430Z,24.16
2023-04-12T12:14:37.381Z,24.18
2023-04-12T12:15:37.387Z,24.19
2023-04-12T12:16:37.298Z,24.18
2023-04-12T12:17:37.310Z,24.19
2023-04-12T12:18:37.169Z,24.20
2023-04-12T12:19:37.116Z,24.22
2023-04-12T12:20:37.066Z,24.22
2023-04-12T12:21:37.007Z,24.22
2023-04-12T12:22:36.970Z,24.23
2023-04-12T12:23:36.903Z,24.23
2023-04-12T12:24:40.484Z,24.28
2023-04-12T12:25:37.793Z,24.29
2023-04-12T12:26:36.747Z,24.28
2023-04-12T12:27:36.782Z,24.28
2023-04-12T12:28:36.629Z,24.28
2023-04-12T12:29:36.566Z,24.26
2023-04-12T12:30:36.497Z,24.28
2023-04-12T12:31:36.520Z,24.28
2023-04-12T12:32:36.401Z,24.29
2023-04-12T12:33:45.960Z,24.26
2023-04-12T12:34:37.296Z,24.29
2023-04-12T12:35:36.285Z,24.26
2023-04-12T12:36:36.488Z,24.26
2023-04-12T12:37:36.147Z,24.25
2023-04-12T12:38:37.523Z,24.25
2023-04-12T12:39:36.045Z,24.25
2023-04-12T12:40:35.968Z,24.28
2023-04-12T12:41:35.958Z,24.25
2023-04-12T12:42:35.871Z,24.23
2023-04-12T12:43:35.806Z,24.23
2023-04-12T12:44:37.799Z,24.22
2023-04-12T12:45:35.689Z,24.22
2023-04-12T12:46:50.686Z,24.23
2023-04-12T12:47:36.640Z,24.20
2023-04-12T12:48:35.593Z,24.20
2023-04-12T12:49:35.465Z,24.22
2023-04-12T12:50:35.457Z,24.22
2023-04-12T12:51:35.359Z,24.25
2023-04-12T12:52:35.322Z,24.25